sensor_id;sensor_type;location;lat;lon;timestamp;P1;durP1;ratioP1;P2;durP2;ratioP2
23474;SDS011;11910;52.086;21.066;2023-04-19T00:00:32;6.75;;;6.00;;
23474;SDS011;11910;52.086;21.066;2023-04-19T00:02:59;7.40;;;5.95;;
23474;SDS011;11910;52.086;21.066;2023-04-19T00:05:26;7.03;;;5.55;;
23474;SDS011;11910;52.086;21.066;2023-04-19T00:07:52;6.97;;;5.22;;
23474;SDS011;11910;52.086;21.066;2023-04-19T00:10:18;7.00;;;5.43;;
23474;SDS011;11910;52.086;21.066;2023-04-19T00:12:43;6.22;;;5.35;;
23474;SDS011;11910;52.086;21.066;2023-04-19T00:15:09;6.35;;;5.30;;
23474;SDS011;11910;52.086;21.066;2023-04-19T00:17:35;9.38;;;6.20;;
23474;SDS011;11910;52.086;21.066;2023-04-19T00:20:00;7.70;;;6.55;;
23474;SDS011;11910;52.086;21.066;2023-04-19T00:22:26;7.88;;;6.43;;
23474;SDS011;11910;52.086;21.066;2023-04-19T00:24:52;9.43;;;6.70;;
23474;SDS011;11910;52.086;21.066;2023-04-19T00:38:20;8.77;;;6.22;;
23474;SDS011;11910;52.086;21.066;2023-04-19T00:40:45;9.27;;;6.30;;
23474;SDS011;11910;52.086;21.066;2023-04-19T00:43:11;8.20;;;6.65;;
23474;SDS011;11910;52.086;21.066;2023-04-19T00:45:42;7.72;;;6.35;;
23474;SDS011;11910;52.086;21.066;2023-04-19T00:48:08;7.63;;;6.20;;
23474;SDS011;11910;52.086;21.066;2023-04-19T00:50:34;6.78;;;6.07;;
23474;SDS011;11910;52.086;21.066;2023-04-19T00:53:00;8.50;;;6.53;;
23474;SDS011;11910;52.086;21.066;2023-04-19T00:55:26;6.82;;;6.13;;
23474;SDS011;11910;52.086;21.066;2023-04-19T00:57:52;7.50;;;6.60;;
23474;SDS011;11910;52.086;21.066;2023-04-19T01:00:18;8.18;;;6.80;;
23474;SDS011;11910;52.086;21.066;2023-04-19T01:02:44;8.63;;;6.82;;
23474;SDS011;11910;52.086;21.066;2023-04-19T01:05:11;8.55;;;6.78;;
23474;SDS011;11910;52.086;21.066;2023-04-19T01:07:37;8.60;;;7.18;;
23474;SDS011;11910;52.086;21.066;2023-04-19T01:10:02;8.30;;;7.18;;
23474;SDS011;11910;52.086;21.066;2023-04-19T01:12:28;8.75;;;7.10;;
23474;SDS011;11910;52.086;21.066;2023-04-19T01:14:54;9.82;;;7.88;;
23474;SDS011;11910;52.086;21.066;2023-04-19T01:17:19;9.13;;;7.35;;
23474;SDS011;11910;52.086;21.066;2023-04-19T01:19:45;7.70;;;6.97;;
23474;SDS011;11910;52.086;21.066;2023-04-19T01:22:20;8.68;;;7.43;;
23474;SDS011;11910;52.086;21.066;2023-04-19T01:24:48;8.25;;;7.30;;
23474;SDS011;11910;52.086;21.066;2023-04-19T01:27:15;9.02;;;7.65;;
23474;SDS011;11910;52.086;21.066;2023-04-19T01:29:41;9.60;;;8.20;;
23474;SDS011;11910;52.086;21.066;2023-04-19T01:32:07;9.73;;;8.25;;
23474;SDS011;11910;52.086;21.066;2023-04-19T01:34:32;8.00;;;7.03;;
23474;SDS011;11910;52.086;21.066;2023-04-19T01:36:58;8.75;;;7.70;;
23474;SDS011;11910;52.086;21.066;2023-04-19T01:39:27;8.32;;;7.35;;
23474;SDS011;11910;52.086;21.066;2023-04-19T01:41:53;9.93;;;8.05;;
23474;SDS011;11910;52.086;21.066;2023-04-19T01:44:18;11.60;;;8.73;;
23474;SDS011;11910;52.086;21.066;2023-04-19T01:46:44;10.68;;;7.97;;
23474;SDS011;11910;52.086;21.066;2023-04-19T01:49:09;9.30;;;8.30;;
23474;SDS011;11910;52.086;21.066;2023-04-19T01:51:36;10.43;;;8.40;;
23474;SDS011;11910;52.086;21.066;2023-04-19T01:54:03;11.82;;;8.80;;
23474;SDS011;11910;52.086;21.066;2023-04-19T01:56:29;9.95;;;8.63;;
23474;SDS011;11910;52.086;21.066;2023-04-19T01:58:55;11.50;;;8.70;;
23474;SDS011;11910;52.086;21.066;2023-04-19T02:01:20;13.00;;;11.65;;
23474;SDS011;11910;52.086;21.066;2023-04-19T02:03:46;11.40;;;10.27;;
23474;SDS011;11910;52.086;21.066;2023-04-19T02:06:12;11.07;;;9.88;;
23474;SDS011;11910;52.086;21.066;2023-04-19T02:08:38;11.70;;;10.50;;
23474;SDS011;11910;52.086;21.066;2023-04-19T02:11:08;12.75;;;10.93;;
23474;SDS011;11910;52.086;21.066;2023-04-19T02:13:34;12.43;;;10.73;;
23474;SDS011;11910;52.086;21.066;2023-04-19T02:16:00;13.82;;;11.02;;
23474;SDS011;11910;52.086;21.066;2023-04-19T02:18:30;12.95;;;11.48;;
23474;SDS011;11910;52.086;21.066;2023-04-19T02:20:56;14.27;;;10.80;;
23474;SDS011;11910;52.086;21.066;2023-04-19T02:23:24;12.65;;;10.90;;
23474;SDS011;11910;52.086;21.066;2023-04-19T02:25:50;11.82;;;10.40;;
23474;SDS011;11910;52.086;21.066;2023-04-19T02:28:16;13.27;;;10.48;;
23474;SDS011;11910;52.086;21.066;2023-04-19T02:30:41;11.65;;;9.43;;
23474;SDS011;11910;52.086;21.066;2023-04-19T02:33:07;12.38;;;9.77;;
23474;SDS011;11910;52.086;21.066;2023-04-19T02:35:32;12.00;;;9.57;;
23474;SDS011;11910;52.086;21.066;2023-04-19T02:37:59;13.48;;;10.23;;
23474;SDS011;11910;52.086;21.066;2023-04-19T02:40:26;12.63;;;10.05;;
23474;SDS011;11910;52.086;21.066;2023-04-19T02:42:52;12.48;;;10.43;;
23474;SDS011;11910;52.086;21.066;2023-04-19T02:45:17;10.95;;;9.80;;
23474;SDS011;11910;52.086;21.066;2023-04-19T02:47:43;12.18;;;10.32;;
23474;SDS011;11910;52.086;21.066;2023-04-19T02:50:10;13.45;;;10.82;;
23474;SDS011;11910;52.086;21.066;2023-04-19T02:52:36;11.35;;;9.82;;
23474;SDS011;11910;52.086;21.066;2023-04-19T02:55:02;13.25;;;10.90;;
23474;SDS011;11910;52.086;21.066;2023-04-19T02:57:28;13.35;;;10.95;;
23474;SDS011;11910;52.086;21.066;2023-04-19T02:59:54;13.85;;;10.85;;
23474;SDS011;11910;52.086;21.066;2023-04-19T03:02:20;15.07;;;11.68;;
23474;SDS011;11910;52.086;21.066;2023-04-19T03:04:45;11.82;;;10.07;;
23474;SDS011;11910;52.086;21.066;2023-04-19T03:07:12;14.57;;;12.18;;
23474;SDS011;11910;52.086;21.066;2023-04-19T03:09:38;13.70;;;11.13;;
23474;SDS011;11910;52.086;21.066;2023-04-19T03:12:04;13.63;;;10.55;;
23474;SDS011;11910;52.086;21.066;2023-04-19T03:14:31;14.40;;;10.25;;
23474;SDS011;11910;52.086;21.066;2023-04-19T03:16:58;14.57;;;11.77;;
23474;SDS011;11910;52.086;21.066;2023-04-19T03:19:23;13.40;;;11.50;;
23474;SDS011;11910;52.086;21.066;2023-04-19T03:21:49;12.60;;;10.52;;
23474;SDS011;11910;52.086;21.066;2023-04-19T03:24:15;17.85;;;13.73;;
23474;SDS011;11910;52.086;21.066;2023-04-19T03:26:42;14.43;;;12.90;;
23474;SDS011;11910;52.086;21.066;2023-04-19T03:29:08;14.50;;;11.38;;
23474;SDS011;11910;52.086;21.066;2023-04-19T03:31:33;14.38;;;12.23;;
23474;SDS011;11910;52.086;21.066;2023-04-19T03:33:59;14.63;;;12.02;;
23474;SDS011;11910;52.086;21.066;2023-04-19T03:36:25;13.35;;;10.98;;
23474;SDS011;11910;52.086;21.066;2023-04-19T03:38:51;13.52;;;10.20;;
23474;SDS011;11910;52.086;21.066;2023-04-19T03:41:20;10.85;;;9.15;;
23474;SDS011;11910;52.086;21.066;2023-04-19T03:43:47;11.35;;;9.35;;
23474;SDS011;11910;52.086;21.066;2023-04-19T03:46:13;10.07;;;8.23;;
23474;SDS011;11910;52.086;21.066;2023-04-19T03:48:38;9.57;;;8.07;;
23474;SDS011;11910;52.086;21.066;2023-04-19T03:51:04;10.15;;;7.30;;
23474;SDS011;11910;52.086;21.066;2023-04-19T03:53:30;10.82;;;8.00;;
23474;SDS011;11910;52.086;21.066;2023-04-19T03:56:04;9.93;;;7.95;;
23474;SDS011;11910;52.086;21.066;2023-04-19T03:58:30;10.55;;;8.82;;
23474;SDS011;11910;52.086;21.066;2023-04-19T04:00:57;9.93;;;7.90;;
23474;SDS011;11910;52.086;21.066;2023-04-19T04:03:23;9.65;;;7.85;;
23474;SDS011;11910;52.086;21.066;2023-04-19T04:05:49;7.43;;;6.40;;
23474;SDS011;11910;52.086;21.066;2023-04-19T04:08:14;6.85;;;5.90;;
23474;SDS011;11910;52.086;21.066;2023-04-19T04:10:40;6.90;;;5.90;;
23474;SDS011;11910;52.086;21.066;2023-04-19T04:13:05;6.50;;;5.20;;
23474;SDS011;11910;52.086;21.066;2023-04-19T04:15:31;6.57;;;4.68;;
23474;SDS011;11910;52.086;21.066;2023-04-19T04:17:57;6.05;;;4.97;;
23474;SDS011;11910;52.086;21.066;2023-04-19T04:20:23;7.03;;;5.90;;
23474;SDS011;11910;52.086;21.066;2023-04-19T04:22:48;7.47;;;5.85;;
23474;SDS011;11910;52.086;21.066;2023-04-19T04:25:32;7.38;;;5.95;;
23474;SDS011;11910;52.086;21.066;2023-04-19T04:28:02;7.97;;;6.15;;
23474;SDS011;11910;52.086;21.066;2023-04-19T04:30:28;6.82;;;5.97;;
23474;SDS011;11910;52.086;21.066;2023-04-19T04:32:54;6.97;;;5.68;;
23474;SDS011;11910;52.086;21.066;2023-04-19T04:35:22;6.03;;;5.40;;
23474;SDS011;11910;52.086;21.066;2023-04-19T04:37:47;7.47;;;6.47;;
23474;SDS011;11910;52.086;21.066;2023-04-19T04:40:13;7.13;;;6.18;;
23474;SDS011;11910;52.086;21.066;2023-04-19T04:42:39;6.55;;;5.90;;
23474;SDS011;11910;52.086;21.066;2023-04-19T04:45:07;11.35;;;6.43;;
23474;SDS011;11910;52.086;21.066;2023-04-19T04:47:35;7.50;;;6.32;;
23474;SDS011;11910;52.086;21.066;2023-04-19T04:50:01;7.05;;;5.05;;
23474;SDS011;11910;52.086;21.066;2023-04-19T04:52:27;6.93;;;5.13;;
23474;SDS011;11910;52.086;21.066;2023-04-19T04:54:54;5.90;;;5.40;;
23474;SDS011;11910;52.086;21.066;2023-04-19T04:57:20;6.22;;;5.63;;
23474;SDS011;11910;52.086;21.066;2023-04-19T04:59:48;7.10;;;6.40;;
23474;SDS011;11910;52.086;21.066;2023-04-19T05:05:36;7.82;;;6.47;;
23474;SDS011;11910;52.086;21.066;2023-04-19T05:08:02;7.13;;;6.18;;
23474;SDS011;11910;52.086;21.066;2023-04-19T05:10:27;7.55;;;6.80;;
23474;SDS011;11910;52.086;21.066;2023-04-19T05:12:53;7.25;;;6.30;;
23474;SDS011;11910;52.086;21.066;2023-04-19T05:15:19;6.70;;;5.90;;
23474;SDS011;11910;52.086;21.066;2023-04-19T05:17:44;7.55;;;6.13;;
23474;SDS011;11910;52.086;21.066;2023-04-19T05:20:10;7.70;;;6.10;;
23474;SDS011;11910;52.086;21.066;2023-04-19T05:22:36;8.25;;;6.97;;
23474;SDS011;11910;52.086;21.066;2023-04-19T05:25:04;7.03;;;6.22;;
23474;SDS011;11910;52.086;21.066;2023-04-19T05:27:31;8.77;;;6.55;;
23474;SDS011;11910;52.086;21.066;2023-04-19T05:29:56;8.57;;;7.00;;
23474;SDS011;11910;52.086;21.066;2023-04-19T05:32:22;8.13;;;6.90;;
23474;SDS011;11910;52.086;21.066;2023-04-19T05:34:47;9.35;;;7.50;;
23474;SDS011;11910;52.086;21.066;2023-04-19T05:37:13;8.07;;;7.28;;
23474;SDS011;11910;52.086;21.066;2023-04-19T05:39:39;8.65;;;7.75;;
23474;SDS011;11910;52.086;21.066;2023-04-19T05:42:04;8.98;;;8.07;;
23474;SDS011;11910;52.086;21.066;2023-04-19T05:44:30;9.75;;;7.47;;
23474;SDS011;11910;52.086;21.066;2023-04-19T05:46:55;9.90;;;8.18;;
23474;SDS011;11910;52.086;21.066;2023-04-19T05:49:21;12.65;;;10.77;;
23474;SDS011;11910;52.086;21.066;2023-04-19T05:51:47;14.57;;;11.23;;
23474;SDS011;11910;52.086;21.066;2023-04-19T05:54:13;10.88;;;9.77;;
23474;SDS011;11910;52.086;21.066;2023-04-19T05:56:38;11.65;;;10.43;;
23474;SDS011;11910;52.086;21.066;2023-04-19T05:59:05;12.95;;;11.05;;
23474;SDS011;11910;52.086;21.066;2023-04-19T06:01:30;14.48;;;12.98;;
23474;SDS011;11910;52.086;21.066;2023-04-19T06:03:56;15.73;;;14.00;;
23474;SDS011;11910;52.086;21.066;2023-04-19T06:06:22;17.20;;;15.27;;
23474;SDS011;11910;52.086;21.066;2023-04-19T06:08:48;18.13;;;14.93;;
23474;SDS011;11910;52.086;21.066;2023-04-19T06:11:14;17.85;;;15.63;;
23474;SDS011;11910;52.086;21.066;2023-04-19T06:13:40;18.88;;;16.27;;
23474;SDS011;11910;52.086;21.066;2023-04-19T06:16:06;19.42;;;17.35;;
23474;SDS011;11910;52.086;21.066;2023-04-19T06:18:32;20.80;;;18.27;;
23474;SDS011;11910;52.086;21.066;2023-04-19T06:20:58;18.70;;;16.80;;
23474;SDS011;11910;52.086;21.066;2023-04-19T06:23:23;19.70;;;17.63;;
23474;SDS011;11910;52.086;21.066;2023-04-19T06:25:49;19.58;;;17.10;;
23474;SDS011;11910;52.086;21.066;2023-04-19T06:28:15;20.27;;;18.10;;
23474;SDS011;11910;52.086;21.066;2023-04-19T06:30:41;19.67;;;17.67;;
23474;SDS011;11910;52.086;21.066;2023-04-19T06:33:06;21.88;;;19.08;;
23474;SDS011;11910;52.086;21.066;2023-04-19T06:35:32;19.65;;;17.63;;
23474;SDS011;11910;52.086;21.066;2023-04-19T06:37:58;19.10;;;16.45;;
23474;SDS011;11910;52.086;21.066;2023-04-19T06:40:24;20.13;;;18.02;;
23474;SDS011;11910;52.086;21.066;2023-04-19T06:42:50;17.67;;;15.77;;
23474;SDS011;11910;52.086;21.066;2023-04-19T06:45:17;20.88;;;17.50;;
23474;SDS011;11910;52.086;21.066;2023-04-19T06:47:42;18.67;;;16.75;;
23474;SDS011;11910;52.086;21.066;2023-04-19T06:50:08;18.33;;;16.42;;
23474;SDS011;11910;52.086;21.066;2023-04-19T06:52:35;20.40;;;18.00;;
23474;SDS011;11910;52.086;21.066;2023-04-19T06:55:01;18.58;;;16.58;;
23474;SDS011;11910;52.086;21.066;2023-04-19T06:57:26;20.90;;;17.33;;
23474;SDS011;11910;52.086;21.066;2023-04-19T06:59:55;19.52;;;17.42;;
23474;SDS011;11910;52.086;21.066;2023-04-19T07:02:22;21.15;;;18.80;;
23474;SDS011;11910;52.086;21.066;2023-04-19T07:04:47;20.17;;;16.90;;
23474;SDS011;11910;52.086;21.066;2023-04-19T07:07:13;21.63;;;19.27;;
23474;SDS011;11910;52.086;21.066;2023-04-19T07:09:38;20.15;;;18.05;;
23474;SDS011;11910;52.086;21.066;2023-04-19T07:12:04;19.85;;;16.70;;
23474;SDS011;11910;52.086;21.066;2023-04-19T07:14:30;23.05;;;16.98;;
23474;SDS011;11910;52.086;21.066;2023-04-19T07:16:56;19.20;;;16.85;;
23474;SDS011;11910;52.086;21.066;2023-04-19T07:19:22;22.83;;;19.13;;
23474;SDS011;11910;52.086;21.066;2023-04-19T07:21:48;21.50;;;19.20;;
23474;SDS011;11910;52.086;21.066;2023-04-19T07:24:14;20.52;;;18.17;;
23474;SDS011;11910;52.086;21.066;2023-04-19T07:26:40;16.23;;;13.90;;
23474;SDS011;11910;52.086;21.066;2023-04-19T07:29:05;26.50;;;17.23;;
23474;SDS011;11910;52.086;21.066;2023-04-19T07:31:31;18.98;;;16.67;;
23474;SDS011;11910;52.086;21.066;2023-04-19T07:33:57;19.92;;;17.77;;
23474;SDS011;11910;52.086;21.066;2023-04-19T07:36:23;22.35;;;18.33;;
23474;SDS011;11910;52.086;21.066;2023-04-19T07:38:48;25.88;;;20.05;;
23474;SDS011;11910;52.086;21.066;2023-04-19T07:41:14;18.77;;;16.08;;
23474;SDS011;11910;52.086;21.066;2023-04-19T07:43:40;23.20;;;18.63;;
23474;SDS011;11910;52.086;21.066;2023-04-19T07:46:09;18.13;;;16.23;;
23474;SDS011;11910;52.086;21.066;2023-04-19T07:48:35;24.58;;;16.65;;
23474;SDS011;11910;52.086;21.066;2023-04-19T07:51:11;23.02;;;18.45;;
23474;SDS011;11910;52.086;21.066;2023-04-19T07:53:39;24.00;;;17.48;;
23474;SDS011;11910;52.086;21.066;2023-04-19T07:56:08;17.70;;;15.80;;
23474;SDS011;11910;52.086;21.066;2023-04-19T07:58:35;20.08;;;17.75;;
23474;SDS011;11910;52.086;21.066;2023-04-19T08:01:03;23.83;;;18.70;;
23474;SDS011;11910;52.086;21.066;2023-04-19T08:03:29;20.30;;;17.60;;
23474;SDS011;11910;52.086;21.066;2023-04-19T08:05:56;17.67;;;15.75;;
23474;SDS011;11910;52.086;21.066;2023-04-19T08:08:23;22.17;;;16.95;;
23474;SDS011;11910;52.086;21.066;2023-04-19T08:10:49;21.75;;;17.98;;
23474;SDS011;11910;52.086;21.066;2023-04-19T08:13:18;24.00;;;18.00;;
23474;SDS011;11910;52.086;21.066;2023-04-19T08:15:44;19.85;;;16.73;;
23474;SDS011;11910;52.086;21.066;2023-04-19T08:18:10;19.67;;;17.50;;
23474;SDS011;11910;52.086;21.066;2023-04-19T08:20:35;23.25;;;17.40;;
23474;SDS011;11910;52.086;21.066;2023-04-19T08:23:01;21.40;;;15.75;;
23474;SDS011;11910;52.086;21.066;2023-04-19T08:25:27;19.00;;;16.98;;
23474;SDS011;11910;52.086;21.066;2023-04-19T08:27:55;16.15;;;14.55;;
23474;SDS011;11910;52.086;21.066;2023-04-19T08:30:22;15.68;;;14.07;;
23474;SDS011;11910;52.086;21.066;2023-04-19T08:32:48;17.02;;;15.13;;
23474;SDS011;11910;52.086;21.066;2023-04-19T08:35:15;17.45;;;15.65;;
23474;SDS011;11910;52.086;21.066;2023-04-19T08:37:41;16.85;;;15.05;;
23474;SDS011;11910;52.086;21.066;2023-04-19T08:40:07;16.63;;;14.48;;
23474;SDS011;11910;52.086;21.066;2023-04-19T08:42:33;18.48;;;15.82;;
23474;SDS011;11910;52.086;21.066;2023-04-19T08:45:02;15.27;;;13.68;;
23474;SDS011;11910;52.086;21.066;2023-04-19T08:47:32;17.48;;;13.07;;
23474;SDS011;11910;52.086;21.066;2023-04-19T08:49:59;15.00;;;13.35;;
23474;SDS011;11910;52.086;21.066;2023-04-19T08:52:27;14.18;;;12.52;;
23474;SDS011;11910;52.086;21.066;2023-04-19T08:54:54;14.05;;;12.00;;
23474;SDS011;11910;52.086;21.066;2023-04-19T08:57:20;15.25;;;12.50;;
23474;SDS011;11910;52.086;21.066;2023-04-19T08:59:45;14.00;;;12.57;;
23474;SDS011;11910;52.086;21.066;2023-04-19T09:02:15;13.68;;;11.52;;
23474;SDS011;11910;52.086;21.066;2023-04-19T09:04:40;12.90;;;11.60;;
23474;SDS011;11910;52.086;21.066;2023-04-19T09:07:06;17.88;;;13.40;;
23474;SDS011;11910;52.086;21.066;2023-04-19T09:09:34;14.02;;;12.52;;
23474;SDS011;11910;52.086;21.066;2023-04-19T09:12:00;14.85;;;12.52;;
23474;SDS011;11910;52.086;21.066;2023-04-19T09:14:26;15.00;;;12.80;;
23474;SDS011;11910;52.086;21.066;2023-04-19T09:16:52;13.75;;;11.88;;
23474;SDS011;11910;52.086;21.066;2023-04-19T09:19:18;14.35;;;12.10;;
23474;SDS011;11910;52.086;21.066;2023-04-19T09:21:44;23.65;;;13.57;;
23474;SDS011;11910;52.086;21.066;2023-04-19T09:24:10;14.38;;;12.02;;
23474;SDS011;11910;52.086;21.066;2023-04-19T09:26:36;14.52;;;12.05;;
23474;SDS011;11910;52.086;21.066;2023-04-19T09:29:03;12.57;;;11.27;;
23474;SDS011;11910;52.086;21.066;2023-04-19T09:31:35;13.20;;;11.20;;
23474;SDS011;11910;52.086;21.066;2023-04-19T09:34:17;11.32;;;10.18;;
23474;SDS011;11910;52.086;21.066;2023-04-19T09:36:43;10.70;;;9.60;;
23474;SDS011;11910;52.086;21.066;2023-04-19T09:39:10;15.18;;;10.85;;
23474;SDS011;11910;52.086;21.066;2023-04-19T09:41:51;14.13;;;11.35;;
23474;SDS011;11910;52.086;21.066;2023-04-19T09:44:18;13.68;;;10.93;;
23474;SDS011;11910;52.086;21.066;2023-04-19T09:46:44;15.48;;;10.65;;
23474;SDS011;11910;52.086;21.066;2023-04-19T09:49:15;11.63;;;10.20;;
23474;SDS011;11910;52.086;21.066;2023-04-19T09:51:51;14.40;;;10.65;;
23474;SDS011;11910;52.086;21.066;2023-04-19T09:54:19;11.60;;;10.23;;
23474;SDS011;11910;52.086;21.066;2023-04-19T09:56:47;13.18;;;10.95;;
23474;SDS011;11910;52.086;21.066;2023-04-19T09:59:14;13.98;;;11.07;;
23474;SDS011;11910;52.086;21.066;2023-04-19T10:01:47;11.80;;;10.60;;
23474;SDS011;11910;52.086;21.066;2023-04-19T10:04:17;12.95;;;11.55;;
23474;SDS011;11910;52.086;21.066;2023-04-19T10:06:48;13.68;;;11.77;;
23474;SDS011;11910;52.086;21.066;2023-04-19T10:09:18;15.52;;;12.75;;
23474;SDS011;11910;52.086;21.066;2023-04-19T10:11:48;15.80;;;12.00;;
23474;SDS011;11910;52.086;21.066;2023-04-19T10:14:16;14.73;;;12.35;;
23474;SDS011;11910;52.086;21.066;2023-04-19T10:16:46;17.85;;;13.38;;
23474;SDS011;11910;52.086;21.066;2023-04-19T10:19:17;18.52;;;13.82;;
23474;SDS011;11910;52.086;21.066;2023-04-19T10:21:44;14.80;;;13.20;;
23474;SDS011;11910;52.086;21.066;2023-04-19T10:24:13;13.55;;;12.18;;
23474;SDS011;11910;52.086;21.066;2023-04-19T10:29:54;15.18;;;12.75;;
23474;SDS011;11910;52.086;21.066;2023-04-19T10:32:20;12.65;;;11.30;;
23474;SDS011;11910;52.086;21.066;2023-04-19T10:34:46;13.20;;;11.80;;
23474;SDS011;11910;52.086;21.066;2023-04-19T10:37:14;15.88;;;12.23;;
23474;SDS011;11910;52.086;21.066;2023-04-19T10:39:41;14.38;;;11.50;;
23474;SDS011;11910;52.086;21.066;2023-04-19T10:42:08;14.10;;;11.52;;
23474;SDS011;11910;52.086;21.066;2023-04-19T10:44:34;14.80;;;11.18;;
23474;SDS011;11910;52.086;21.066;2023-04-19T10:47:00;35.00;;;14.95;;
23474;SDS011;11910;52.086;21.066;2023-04-19T10:49:28;13.40;;;10.70;;
23474;SDS011;11910;52.086;21.066;2023-04-19T10:51:55;15.52;;;11.88;;
23474;SDS011;11910;52.086;21.066;2023-04-19T10:54:31;14.05;;;11.73;;
23474;SDS011;11910;52.086;21.066;2023-04-19T10:59:32;14.80;;;12.73;;
23474;SDS011;11910;52.086;21.066;2023-04-19T11:02:00;13.13;;;11.70;;
23474;SDS011;11910;52.086;21.066;2023-04-19T11:04:56;13.25;;;10.88;;
23474;SDS011;11910;52.086;21.066;2023-04-19T11:07:23;12.40;;;10.90;;
23474;SDS011;11910;52.086;21.066;2023-04-19T11:09:49;12.65;;;11.35;;
23474;SDS011;11910;52.086;21.066;2023-04-19T11:12:17;13.32;;;11.93;;
23474;SDS011;11910;52.086;21.066;2023-04-19T11:17:16;13.73;;;11.55;;
23474;SDS011;11910;52.086;21.066;2023-04-19T11:19:58;15.85;;;11.60;;
23474;SDS011;11910;52.086;21.066;2023-04-19T11:27:43;12.98;;;11.48;;
23474;SDS011;11910;52.086;21.066;2023-04-19T11:30:14;18.52;;;12.93;;
23474;SDS011;11910;52.086;21.066;2023-04-19T11:32:53;13.70;;;11.60;;
23474;SDS011;11910;52.086;21.066;2023-04-19T11:35:22;13.50;;;11.20;;
23474;SDS011;11910;52.086;21.066;2023-04-19T11:37:49;11.40;;;10.20;;
23474;SDS011;11910;52.086;21.066;2023-04-19T11:40:16;11.68;;;10.07;;
23474;SDS011;11910;52.086;21.066;2023-04-19T11:42:43;11.57;;;9.30;;
23474;SDS011;11910;52.086;21.066;2023-04-19T11:45:09;11.65;;;8.40;;
23474;SDS011;11910;52.086;21.066;2023-04-19T11:47:48;13.63;;;9.25;;
23474;SDS011;11910;52.086;21.066;2023-04-19T11:55:36;10.88;;;9.77;;
23474;SDS011;11910;52.086;21.066;2023-04-19T11:58:02;10.77;;;9.68;;
23474;SDS011;11910;52.086;21.066;2023-04-19T12:00:33;12.30;;;9.80;;
23474;SDS011;11910;52.086;21.066;2023-04-19T12:02:59;12.40;;;10.30;;
23474;SDS011;11910;52.086;21.066;2023-04-19T12:05:25;10.95;;;9.27;;
23474;SDS011;11910;52.086;21.066;2023-04-19T12:10:23;11.30;;;9.20;;
23474;SDS011;11910;52.086;21.066;2023-04-19T12:12:51;12.25;;;9.90;;
23474;SDS011;11910;52.086;21.066;2023-04-19T12:15:17;10.00;;;9.00;;
23474;SDS011;11910;52.086;21.066;2023-04-19T12:17:58;13.88;;;10.50;;
23474;SDS011;11910;52.086;21.066;2023-04-19T12:20:32;12.43;;;10.52;;
23474;SDS011;11910;52.086;21.066;2023-04-19T12:23:02;10.80;;;9.77;;
23474;SDS011;11910;52.086;21.066;2023-04-19T12:25:31;12.02;;;10.38;;
23474;SDS011;11910;52.086;21.066;2023-04-19T12:27:58;12.57;;;10.70;;
23474;SDS011;11910;52.086;21.066;2023-04-19T12:30:25;12.98;;;11.57;;
23474;SDS011;11910;52.086;21.066;2023-04-19T12:32:54;12.98;;;11.02;;
23474;SDS011;11910;52.086;21.066;2023-04-19T12:35:20;13.93;;;10.88;;
23474;SDS011;11910;52.086;21.066;2023-04-19T12:37:47;11.98;;;10.68;;
23474;SDS011;11910;52.086;21.066;2023-04-19T12:40:13;13.73;;;10.93;;
23474;SDS011;11910;52.086;21.066;2023-04-19T12:42:40;13.02;;;11.15;;
23474;SDS011;11910;52.086;21.066;2023-04-19T12:45:05;13.10;;;10.38;;
23474;SDS011;11910;52.086;21.066;2023-04-19T12:47:31;13.32;;;11.48;;
23474;SDS011;11910;52.086;21.066;2023-04-19T12:49:57;12.15;;;10.70;;
23474;SDS011;11910;52.086;21.066;2023-04-19T12:52:22;13.05;;;10.85;;
23474;SDS011;11910;52.086;21.066;2023-04-19T12:54:48;12.88;;;11.35;;
23474;SDS011;11910;52.086;21.066;2023-04-19T12:57:14;15.93;;;11.88;;
23474;SDS011;11910;52.086;21.066;2023-04-19T12:59:40;11.88;;;10.38;;
23474;SDS011;11910;52.086;21.066;2023-04-19T13:02:05;11.77;;;10.05;;
23474;SDS011;11910;52.086;21.066;2023-04-19T13:04:31;11.10;;;9.90;;
23474;SDS011;11910;52.086;21.066;2023-04-19T13:06:57;10.77;;;9.40;;
23474;SDS011;11910;52.086;21.066;2023-04-19T13:09:23;13.15;;;9.70;;
23474;SDS011;11910;52.086;21.066;2023-04-19T13:11:50;12.63;;;9.43;;
23474;SDS011;11910;52.086;21.066;2023-04-19T13:14:16;11.00;;;8.95;;
23474;SDS011;11910;52.086;21.066;2023-04-19T13:16:41;9.65;;;8.65;;
23474;SDS011;11910;52.086;21.066;2023-04-19T13:19:07;13.30;;;9.43;;
23474;SDS011;11910;52.086;21.066;2023-04-19T13:21:33;9.63;;;8.63;;
23474;SDS011;11910;52.086;21.066;2023-04-19T13:23:58;10.10;;;8.95;;
23474;SDS011;11910;52.086;21.066;2023-04-19T13:26:24;11.15;;;8.63;;
23474;SDS011;11910;52.086;21.066;2023-04-19T13:28:50;12.98;;;9.07;;
23474;SDS011;11910;52.086;21.066;2023-04-19T13:31:15;11.52;;;8.65;;
23474;SDS011;11910;52.086;21.066;2023-04-19T13:33:41;10.02;;;7.88;;
23474;SDS011;11910;52.086;21.066;2023-04-19T13:36:06;10.63;;;8.20;;
23474;SDS011;11910;52.086;21.066;2023-04-19T13:38:32;9.90;;;8.40;;
23474;SDS011;11910;52.086;21.066;2023-04-19T13:40:58;12.35;;;8.02;;
23474;SDS011;11910;52.086;21.066;2023-04-19T13:43:24;9.18;;;7.80;;
23474;SDS011;11910;52.086;21.066;2023-04-19T13:45:50;10.20;;;7.60;;
23474;SDS011;11910;52.086;21.066;2023-04-19T13:48:16;10.05;;;7.75;;
23474;SDS011;11910;52.086;21.066;2023-04-19T13:50:41;12.02;;;7.35;;
23474;SDS011;11910;52.086;21.066;2023-04-19T13:53:07;8.30;;;7.35;;
23474;SDS011;11910;52.086;21.066;2023-04-19T13:55:33;12.25;;;7.35;;
23474;SDS011;11910;52.086;21.066;2023-04-19T13:57:59;9.10;;;7.90;;
23474;SDS011;11910;52.086;21.066;2023-04-19T14:00:25;8.95;;;6.78;;
23474;SDS011;11910;52.086;21.066;2023-04-19T14:02:50;8.60;;;7.75;;
23474;SDS011;11910;52.086;21.066;2023-04-19T14:05:16;8.00;;;7.20;;
23474;SDS011;11910;52.086;21.066;2023-04-19T14:07:42;8.32;;;7.47;;
23474;SDS011;11910;52.086;21.066;2023-04-19T14:10:08;8.57;;;7.63;;
23474;SDS011;11910;52.086;21.066;2023-04-19T14:12:34;7.40;;;6.70;;
23474;SDS011;11910;52.086;21.066;2023-04-19T14:14:59;7.93;;;6.50;;
23474;SDS011;11910;52.086;21.066;2023-04-19T14:17:25;8.32;;;6.40;;
23474;SDS011;11910;52.086;21.066;2023-04-19T14:19:51;8.00;;;6.97;;
23474;SDS011;11910;52.086;21.066;2023-04-19T14:22:16;8.98;;;7.20;;
23474;SDS011;11910;52.086;21.066;2023-04-19T14:24:42;7.70;;;6.90;;
23474;SDS011;11910;52.086;21.066;2023-04-19T14:27:07;7.70;;;6.93;;
23474;SDS011;11910;52.086;21.066;2023-04-19T14:29:33;7.72;;;6.93;;
23474;SDS011;11910;52.086;21.066;2023-04-19T14:31:59;8.82;;;6.65;;
23474;SDS011;11910;52.086;21.066;2023-04-19T14:34:25;12.02;;;6.57;;
23474;SDS011;11910;52.086;21.066;2023-04-19T14:36:50;7.20;;;6.35;;
23474;SDS011;11910;52.086;21.066;2023-04-19T14:39:19;6.85;;;5.75;;
23474;SDS011;11910;52.086;21.066;2023-04-19T14:41:45;8.00;;;6.93;;
23474;SDS011;11910;52.086;21.066;2023-04-19T14:44:10;6.78;;;6.07;;
23474;SDS011;11910;52.086;21.066;2023-04-19T14:46:36;12.05;;;7.03;;
23474;SDS011;11910;52.086;21.066;2023-04-19T14:49:01;8.60;;;7.40;;
23474;SDS011;11910;52.086;21.066;2023-04-19T14:51:29;9.18;;;7.00;;